createdAt,value
2018-06-12T00:01:57.726Z,6.77
2018-06-12T00:04:25.607Z,6.17
2018-06-12T00:06:53.538Z,6.17
2018-06-12T00:09:22.407Z,6.20
2018-06-12T00:11:50.294Z,6.07
2018-06-12T00:14:18.316Z,5.60
2018-06-12T00:16:46.192Z,6.57
2018-06-12T00:19:14.419Z,5.80
2018-06-12T00:21:42.307Z,6.20
2018-06-12T00:24:10.382Z,7.07
2018-06-12T00:26:38.274Z,5.70
2018-06-12T00:29:06.003Z,5.77
2018-06-12T00:31:33.901Z,6.03
2018-06-12T00:34:01.714Z,7.33
2018-06-12T00:36:29.751Z,7.87
2018-06-12T00:38:57.653Z,6.63
2018-06-12T00:41:25.543Z,6.70
2018-06-12T00:43:53.471Z,7.93
2018-06-12T00:46:21.388Z,8.37
2018-06-12T00:48:49.346Z,8.53
2018-06-12T00:51:17.320Z,7.37
2018-06-12T00:53:46.259Z,8.97
2018-06-12T00:56:20.477Z,8.20
2018-06-12T00:58:48.227Z,8.37
2018-06-12T01:01:17.485Z,8.37
2018-06-12T01:03:45.403Z,9.17
2018-06-12T01:06:13.296Z,8.40
2018-06-12T01:08:41.565Z,8.53
2018-06-12T01:11:10.146Z,8.33
2018-06-12T01:13:38.202Z,9.33
2018-06-12T01:16:06.803Z,9.57
2018-06-12T01:18:35.433Z,9.00
2018-06-12T01:21:03.593Z,9.23
2018-06-12T01:23:31.454Z,10.03
2018-06-12T01:25:59.358Z,8.93
2018-06-12T01:28:27.261Z,9.10
2018-06-12T01:30:55.718Z,8.60
2018-06-12T01:33:23.455Z,10.97
2018-06-12T01:35:51.317Z,10.27
2018-06-12T01:38:19.237Z,8.77
2018-06-12T01:40:47.145Z,10.03
2018-06-12T01:43:15.096Z,9.27
2018-06-12T01:45:42.938Z,9.43
2018-06-12T01:48:11.031Z,8.70
2018-06-12T01:50:38.916Z,9.53
2018-06-12T01:53:06.823Z,9.90
2018-06-12T01:55:34.687Z,9.63
2018-06-12T01:58:02.531Z,9.47
2018-06-12T02:00:30.494Z,8.90
2018-06-12T02:02:58.617Z,9.80
2018-06-12T02:05:26.560Z,9.90
2018-06-12T02:07:54.350Z,9.13
2018-06-12T02:10:22.237Z,9.20
2018-06-12T02:12:50.129Z,10.27
2018-06-12T02:15:18.202Z,8.90
2018-06-12T02:17:46.070Z,9.80
2018-06-12T02:20:13.978Z,8.17
2018-06-12T02:22:41.927Z,9.07
2018-06-12T02:25:09.815Z,9.27
2018-06-12T02:27:37.606Z,9.27
2018-06-12T02:30:05.508Z,9.07
2018-06-12T02:32:34.630Z,8.30
2018-06-12T02:35:02.535Z,8.83
2018-06-12T02:37:30.434Z,8.63
2018-06-12T02:39:58.334Z,8.77
2018-06-12T02:42:26.331Z,8.93
2018-06-12T02:44:54.202Z,8.23
2018-06-12T02:47:22.310Z,8.40
2018-06-12T02:49:50.239Z,8.30
2018-06-12T02:52:18.790Z,9.00
2018-06-12T02:54:46.893Z,8.67
2018-06-12T02:57:14.781Z,8.50
2018-06-12T02:59:42.707Z,9.13
2018-06-12T03:02:10.467Z,6.50
2018-06-12T03:04:38.927Z,7.27
2018-06-12T03:07:06.801Z,6.80
2018-06-12T03:09:34.703Z,6.20
2018-06-12T03:12:02.684Z,5.90
2018-06-12T03:14:30.534Z,6.63
2018-06-12T03:16:58.268Z,6.10
2018-06-12T03:19:27.003Z,5.60
2018-06-12T03:21:54.956Z,5.67
2018-06-12T03:24:22.867Z,5.60
2018-06-12T03:26:50.779Z,5.57
2018-06-12T03:29:19.342Z,5.90
2018-06-12T03:31:47.330Z,5.70
2018-06-12T03:34:15.753Z,6.67
2018-06-12T03:36:43.653Z,6.57
2018-06-12T03:39:11.573Z,6.60
2018-06-12T03:41:39.302Z,5.30
2018-06-12T03:44:07.260Z,5.67
2018-06-12T03:46:35.367Z,5.17
2018-06-12T03:49:03.543Z,5.70
2018-06-12T03:51:31.309Z,4.80
2018-06-12T03:53:59.240Z,5.83
2018-06-12T03:56:27.925Z,5.03
2018-06-12T03:58:55.856Z,6.03
2018-06-12T04:01:24.468Z,5.70
2018-06-12T04:03:52.362Z,4.60
2018-06-12T04:06:20.228Z,5.53
2018-06-12T04:08:48.089Z,5.20
2018-06-12T04:11:15.977Z,5.20
2018-06-12T04:13:43.727Z,4.90
2018-06-12T04:16:11.604Z,5.00
2018-06-12T04:18:39.381Z,4.40
2018-06-12T04:21:07.148Z,3.90
2018-06-12T04:23:38.639Z,4.10
2018-06-12T04:26:07.403Z,3.97
2018-06-12T04:28:35.663Z,4.60
2018-06-12T04:31:03.570Z,4.53
2018-06-12T04:33:33.857Z,3.93
2018-06-12T04:36:02.537Z,3.93
2018-06-12T04:38:30.656Z,4.63
2018-06-12T04:41:01.874Z,3.60
2018-06-12T04:43:29.673Z,4.17
2018-06-12T04:46:01.803Z,4.60
2018-06-12T04:48:36.869Z,4.20
2018-06-12T04:51:04.806Z,3.73
2018-06-12T04:53:43.256Z,4.37
2018-06-12T04:56:23.777Z,4.13
2018-06-12T04:58:56.637Z,4.13
2018-06-12T05:01:30.421Z,4.03
2018-06-12T05:03:58.217Z,3.93
2018-06-12T05:06:31.182Z,4.43
2018-06-12T05:09:01.148Z,3.90
2018-06-12T05:11:30.899Z,3.80
2018-06-12T05:14:00.202Z,4.80
2018-06-12T05:16:33.194Z,4.10
2018-06-12T05:19:06.916Z,3.40
2018-06-12T05:21:36.225Z,4.30
2018-06-12T05:24:07.021Z,5.70
2018-06-12T05:26:37.346Z,3.87
2018-06-12T05:29:06.579Z,3.03
2018-06-12T05:31:34.541Z,3.90
2018-06-12T05:34:03.187Z,4.17
2018-06-12T05:36:33.642Z,3.80
2018-06-12T05:39:02.282Z,4.40
2018-06-12T05:41:31.975Z,3.30
2018-06-12T05:43:59.922Z,3.63
2018-06-12T05:46:27.880Z,3.10
2018-06-12T05:48:59.606Z,3.40
2018-06-12T05:51:28.699Z,3.30
2018-06-12T05:53:58.413Z,3.10
2018-06-12T05:56:26.315Z,2.83
2018-06-12T05:58:58.157Z,3.37
2018-06-12T06:01:27.949Z,3.13
2018-06-12T06:03:56.960Z,4.03
2018-06-12T06:06:39.251Z,4.10
2018-06-12T06:09:11.068Z,2.80
2018-06-12T06:11:39.592Z,3.80
2018-06-12T06:14:11.234Z,4.10
2018-06-12T06:16:39.226Z,3.43
2018-06-12T06:19:07.680Z,4.10
2018-06-12T06:21:36.201Z,3.80
2018-06-12T06:24:05.815Z,4.50
2018-06-12T06:26:34.313Z,4.53
2018-06-12T06:29:04.158Z,4.57
2018-06-12T06:31:32.775Z,6.37
2018-06-12T06:34:02.101Z,5.70
2018-06-12T06:36:30.641Z,6.20
2018-06-12T06:38:59.498Z,7.07
2018-06-12T06:41:27.675Z,6.27
2018-06-12T06:43:55.595Z,6.10
2018-06-12T06:46:24.123Z,5.93
2018-06-12T06:48:51.976Z,6.33
2018-06-12T06:51:20.938Z,5.87
2018-06-12T06:53:48.861Z,4.97
2018-06-12T06:56:17.298Z,5.50
2018-06-12T06:58:45.374Z,5.90
2018-06-12T07:01:13.282Z,5.43
2018-06-12T07:03:41.370Z,5.30
2018-06-12T07:06:10.129Z,6.50
2018-06-12T07:08:38.763Z,6.20
2018-06-12T07:11:07.344Z,6.43
2018-06-12T07:13:35.479Z,7.60
2018-06-12T07:16:03.511Z,6.03
2018-06-12T07:18:31.406Z,7.40
2018-06-12T07:21:04.717Z,6.17
2018-06-12T07:23:32.974Z,6.00
2018-06-12T07:26:01.494Z,5.20
2018-06-12T07:28:29.641Z,4.90
2018-06-12T07:30:57.518Z,5.30
2018-06-12T07:33:25.420Z,4.60
2018-06-12T07:35:53.748Z,5.57
2018-06-12T07:38:22.219Z,5.40
2018-06-12T07:40:50.113Z,5.90
2018-06-12T07:43:18.074Z,4.70
2018-06-12T07:45:45.947Z,5.60
2018-06-12T07:48:14.093Z,4.90
2018-06-12T07:50:42.014Z,5.07
2018-06-12T07:53:09.918Z,4.43
2018-06-12T07:55:38.122Z,4.67
2018-06-12T07:58:06.347Z,3.90
2018-06-12T08:00:34.268Z,4.40
2018-06-12T08:03:02.311Z,3.83
2018-06-12T08:05:30.195Z,3.80
2018-06-12T08:07:58.097Z,3.67
2018-06-12T08:10:26.342Z,4.10
2018-06-12T08:12:54.227Z,3.60
2018-06-12T08:15:22.093Z,3.23
2018-06-12T08:17:50.359Z,3.37
2018-06-12T08:20:18.428Z,3.77
2018-06-12T08:22:46.544Z,3.47
2018-06-12T08:25:14.527Z,3.90
2018-06-12T08:27:42.463Z,4.27
2018-06-12T08:30:10.404Z,4.00
2018-06-12T08:32:39.104Z,4.13
2018-06-12T08:35:06.991Z,3.90
2018-06-12T08:37:34.904Z,4.37
2018-06-12T08:40:02.863Z,4.43
2018-06-12T08:42:30.735Z,4.73
2018-06-12T08:44:58.629Z,4.50
2018-06-12T08:47:26.498Z,4.27
2018-06-12T08:49:55.196Z,5.50
2018-06-12T08:52:24.869Z,4.23
2018-06-12T08:54:53.686Z,5.37
2018-06-12T08:57:21.802Z,5.30
2018-06-12T08:59:49.815Z,5.30
2018-06-12T09:02:17.717Z,5.53
2018-06-12T09:04:45.608Z,5.20
2018-06-12T09:07:13.838Z,5.57
2018-06-12T09:09:42.454Z,5.20
2018-06-12T09:12:10.343Z,4.93
2018-06-12T09:14:38.871Z,4.40
2018-06-12T09:17:06.981Z,4.13
2018-06-12T09:19:34.884Z,4.27
2018-06-12T09:22:02.813Z,4.57
2018-06-12T09:24:31.289Z,3.90
2018-06-12T09:26:59.147Z,4.00
2018-06-12T09:29:26.989Z,4.17
2018-06-12T09:31:55.474Z,4.20
2018-06-12T09:34:24.461Z,3.77
2018-06-12T09:36:52.210Z,4.53
2018-06-12T09:39:20.576Z,3.80
2018-06-12T09:41:48.451Z,3.80
2018-06-12T09:44:16.335Z,4.17
2018-06-12T09:46:44.202Z,4.40
2018-06-12T09:49:11.939Z,3.80
2018-06-12T09:51:39.845Z,4.00
2018-06-12T09:54:08.198Z,4.50
2018-06-12T09:56:36.091Z,4.33
2018-06-12T09:59:04.588Z,3.50
2018-06-12T10:01:32.457Z,3.60
2018-06-12T10:04:00.375Z,4.03
2018-06-12T10:06:28.221Z,3.43
2018-06-12T10:08:56.090Z,4.10
2018-06-12T10:11:23.986Z,4.20
2018-06-12T10:13:51.870Z,3.57
2018-06-12T10:16:19.797Z,3.53
2018-06-12T10:18:47.705Z,3.17
2018-06-12T10:21:15.492Z,3.37
2018-06-12T10:23:43.343Z,2.60
2018-06-12T10:26:11.775Z,3.10
2018-06-12T10:28:39.611Z,3.13
2018-06-12T10:31:07.459Z,2.87
2018-06-12T10:33:35.347Z,4.00
2018-06-12T10:36:03.394Z,3.40
2018-06-12T10:38:31.264Z,3.40
2018-06-12T10:40:59.733Z,4.00
2018-06-12T10:43:27.607Z,3.50
2018-06-12T10:45:55.330Z,3.50
2018-06-12T10:48:23.214Z,3.90
2018-06-12T10:50:51.084Z,3.10
2018-06-12T10:53:19.106Z,3.23
2018-06-12T10:55:46.987Z,3.70
2018-06-12T10:58:14.855Z,3.80
2018-06-12T11:00:42.750Z,3.60
2018-06-12T11:03:10.639Z,4.27
2018-06-12T11:05:38.545Z,3.97
2018-06-12T11:08:06.490Z,3.77
2018-06-12T11:10:34.256Z,3.30
2018-06-12T11:13:01.977Z,3.50
2018-06-12T11:15:30.809Z,2.60
2018-06-12T11:17:58.521Z,3.30
2018-06-12T11:20:26.409Z,3.50
2018-06-12T11:22:54.280Z,4.40
2018-06-12T11:25:22.159Z,3.57
2018-06-12T11:27:50.091Z,3.53
2018-06-12T11:30:17.958Z,3.53
2018-06-12T11:32:45.834Z,3.47
2018-06-12T11:35:13.724Z,3.67
2018-06-12T11:37:41.923Z,3.70
2018-06-12T11:40:10.034Z,3.00
2018-06-12T11:42:37.925Z,2.90
2018-06-12T11:45:05.853Z,3.30
2018-06-12T11:47:33.738Z,2.80
2018-06-12T11:50:01.642Z,2.20
2018-06-12T11:52:29.539Z,2.60
2018-06-12T11:54:57.299Z,2.80
2018-06-12T11:57:25.166Z,1.87
2018-06-12T11:59:53.053Z,2.90
2018-06-12T12:02:20.952Z,2.70
2018-06-12T12:04:49.564Z,2.23
2018-06-12T12:07:17.571Z,2.77
2018-06-12T12:09:45.424Z,2.50
2018-06-12T12:12:13.503Z,3.00
2018-06-12T12:14:42.187Z,3.10
2018-06-12T12:17:09.904Z,3.20
2018-06-12T12:19:37.823Z,3.30
2018-06-12T12:22:06.018Z,3.40
2018-06-12T12:24:33.872Z,3.37
2018-06-12T12:27:01.787Z,3.50
2018-06-12T12:29:29.533Z,3.93
2018-06-12T12:31:57.982Z,4.37
2018-06-12T12:34:25.897Z,4.60
2018-06-12T12:36:53.789Z,4.33
2018-06-12T12:39:21.912Z,4.80
2018-06-12T12:41:50.778Z,4.30
2018-06-12T12:44:18.666Z,4.70
2018-06-12T12:46:46.876Z,5.00
2018-06-12T12:49:14.787Z,5.57
2018-06-12T12:51:42.669Z,5.03
2018-06-12T12:54:10.555Z,5.90
2018-06-12T12:56:38.443Z,5.30
2018-06-12T12:59:06.515Z,5.90
2018-06-12T13:01:34.464Z,5.73
2018-06-12T13:04:02.947Z,5.67
2018-06-12T13:06:31.494Z,5.70
2018-06-12T13:08:59.424Z,5.33
2018-06-12T13:11:27.359Z,5.50
2018-06-12T13:13:55.261Z,5.70
2018-06-12T13:16:23.082Z,5.73
2018-06-12T13:18:51.726Z,5.50
2018-06-12T13:21:20.025Z,5.10
2018-06-12T13:23:49.085Z,5.57
2018-06-12T13:26:16.932Z,5.57
2018-06-12T13:28:45.374Z,5.07
2018-06-12T13:31:13.346Z,6.53
2018-06-12T13:33:41.273Z,6.13
2018-06-12T13:36:09.969Z,6.43
2018-06-12T13:38:37.897Z,6.50
2018-06-12T13:41:05.871Z,6.57
2018-06-12T13:43:33.738Z,6.40
2018-06-12T13:46:02.200Z,5.37
2018-06-12T13:48:30.082Z,6.07
2018-06-12T13:50:57.995Z,6.50
2018-06-12T13:53:25.753Z,6.10
2018-06-12T13:55:54.669Z,6.27
2018-06-12T13:58:23.461Z,6.20
2018-06-12T14:00:51.444Z,5.47
2018-06-12T14:03:20.336Z,6.47
2018-06-12T14:05:48.254Z,6.77
2018-06-12T14:08:17.099Z,6.53
2018-06-12T14:10:44.919Z,6.63
2018-06-12T14:13:12.794Z,5.23
2018-06-12T14:15:40.989Z,6.23
2018-06-12T14:18:09.142Z,7.00
2018-06-12T14:20:37.106Z,6.50
2018-06-12T14:23:04.896Z,5.90
2018-06-12T14:25:33.483Z,6.87
2018-06-12T14:28:02.222Z,6.63
2018-06-12T14:30:30.711Z,6.73
2018-06-12T14:32:58.620Z,6.60
2018-06-12T14:35:26.699Z,8.30
2018-06-12T14:37:55.559Z,8.27
2018-06-12T14:40:24.011Z,7.83
2018-06-12T14:42:52.015Z,7.40
2018-06-12T14:45:19.917Z,7.67
2018-06-12T14:47:48.338Z,8.80
2018-06-12T14:50:16.665Z,8.50
2018-06-12T14:52:44.534Z,8.27
2018-06-12T14:55:12.414Z,7.87
2018-06-12T14:57:40.267Z,8.13
2018-06-12T15:00:08.701Z,8.87
2018-06-12T15:02:36.429Z,8.17
2018-06-12T15:05:04.307Z,9.30
2018-06-12T15:07:32.737Z,8.37
2018-06-12T15:10:01.020Z,9.00
2018-06-12T15:12:29.380Z,7.93
2018-06-12T15:14:57.855Z,8.10
2018-06-12T15:17:25.740Z,9.03
2018-06-12T15:19:54.161Z,10.53
2018-06-12T15:22:22.140Z,10.57
2018-06-12T15:24:50.217Z,11.60
2018-06-12T15:27:18.184Z,10.57
2018-06-12T15:29:46.043Z,10.43
2018-06-12T15:32:14.654Z,11.03
2018-06-12T15:34:48.737Z,11.60
2018-06-12T15:37:17.707Z,11.13
2018-06-12T15:39:45.578Z,11.60
2018-06-12T15:42:14.049Z,11.60
2018-06-12T15:44:42.335Z,11.80
2018-06-12T15:47:10.243Z,11.43
2018-06-12T15:49:38.735Z,10.57
2018-06-12T15:52:06.617Z,11.33
2018-06-12T15:54:34.486Z,10.83
2018-06-12T15:57:02.232Z,11.97
2018-06-12T15:59:31.540Z,11.03
2018-06-12T16:01:59.940Z,11.00
2018-06-12T16:04:28.407Z,10.90
2018-06-12T16:06:56.820Z,11.03
2018-06-12T16:09:24.669Z,11.57
2018-06-12T16:11:52.422Z,12.27
2018-06-12T16:14:20.161Z,10.43
2018-06-12T16:16:48.067Z,11.37
2018-06-12T16:19:16.546Z,10.70
2018-06-12T16:21:44.300Z,10.70
2018-06-12T16:24:13.870Z,10.67
2018-06-12T16:26:41.795Z,11.13
2018-06-12T16:29:10.082Z,11.50
2018-06-12T16:31:38.201Z,10.37
2018-06-12T16:34:06.320Z,12.17
2018-06-12T16:36:34.271Z,10.93
2018-06-12T16:39:02.369Z,11.47
2018-06-12T16:41:30.262Z,11.20
2018-06-12T16:43:59.544Z,10.80
2018-06-12T16:46:27.433Z,5.00
2018-06-12T16:48:55.388Z,3.07
2018-06-12T16:51:23.647Z,2.67
2018-06-12T16:53:52.125Z,2.10
2018-06-12T16:56:21.774Z,2.43
2018-06-12T16:58:49.554Z,3.40
2018-06-12T17:01:18.036Z,3.57
2018-06-12T17:03:46.230Z,3.07
2018-06-12T17:06:14.149Z,3.23
2018-06-12T17:08:42.044Z,3.27
2018-06-12T17:11:09.932Z,3.30
2018-06-12T17:13:39.537Z,4.50
2018-06-12T17:16:07.267Z,4.57
2018-06-12T17:18:38.976Z,4.40
2018-06-12T17:21:11.728Z,4.10
2018-06-12T17:23:48.456Z,3.70
2018-06-12T17:26:23.261Z,4.07
2018-06-12T17:29:08.996Z,3.80
2018-06-12T17:31:36.904Z,2.90
2018-06-12T17:34:05.462Z,3.83
2018-06-12T17:36:46.203Z,3.23
2018-06-12T17:39:17.236Z,3.00
2018-06-12T17:41:51.325Z,2.93
2018-06-12T17:44:22.682Z,3.77
2018-06-12T17:46:51.346Z,3.70
2018-06-12T17:49:25.884Z,2.97
2018-06-12T17:51:53.826Z,2.80
2018-06-12T17:54:21.764Z,3.17
2018-06-12T17:56:50.111Z,3.17
2018-06-12T17:59:19.868Z,3.10
2018-06-12T18:01:50.899Z,2.67
2018-06-12T18:04:27.679Z,3.10
2018-06-12T18:07:00.731Z,2.27
2018-06-12T18:09:31.535Z,3.20
2018-06-12T18:12:02.942Z,3.73
2018-06-12T18:14:31.455Z,5.47
2018-06-12T18:17:03.638Z,4.40
2018-06-12T18:19:34.569Z,3.00
2018-06-12T18:22:06.115Z,2.93
2018-06-12T18:24:34.596Z,2.70
2018-06-12T18:27:07.917Z,4.37
2018-06-12T18:29:37.788Z,4.47
2018-06-12T18:32:09.549Z,4.27
2018-06-12T18:34:40.670Z,4.70
2018-06-12T18:37:12.887Z,4.03
2018-06-12T18:39:43.349Z,3.40
2018-06-12T18:42:14.550Z,3.57
2018-06-12T18:44:46.378Z,6.30
2018-06-12T18:47:16.074Z,4.20
2018-06-12T18:49:45.428Z,4.00
2018-06-12T18:52:19.287Z,4.53
2018-06-12T18:54:51.238Z,3.90
2018-06-12T18:57:21.782Z,4.13
2018-06-12T18:59:52.482Z,4.60
2018-06-12T19:02:25.333Z,6.03
2018-06-12T19:05:01.153Z,5.40
2018-06-12T19:07:33.983Z,4.00
2018-06-12T19:10:01.998Z,4.10
2018-06-12T19:12:32.638Z,5.00
2018-06-12T19:15:01.834Z,5.10
2018-06-12T19:17:38.449Z,4.77
2018-06-12T19:20:06.819Z,4.97
2018-06-12T19:22:40.352Z,4.13
2018-06-12T19:25:08.249Z,4.93
2018-06-12T19:27:36.239Z,4.83
2018-06-12T19:30:04.160Z,5.63
2018-06-12T19:32:35.756Z,6.50
2018-06-12T19:35:11.257Z,5.40
2018-06-12T19:37:44.275Z,5.20
2018-06-12T19:40:19.451Z,5.20
2018-06-12T19:42:54.660Z,4.83
2018-06-12T19:45:28.168Z,6.63
2018-06-12T19:48:02.231Z,5.20
2018-06-12T19:50:36.899Z,5.53
2018-06-12T19:53:09.193Z,5.07
2018-06-12T19:55:49.176Z,4.53
2018-06-12T19:58:21.369Z,5.43
2018-06-12T20:00:50.886Z,4.93
2018-06-12T20:03:25.005Z,5.00
2018-06-12T20:05:58.367Z,4.70
2018-06-12T20:08:33.471Z,5.50
2018-06-12T20:11:11.118Z,4.30
2018-06-12T20:13:42.689Z,5.43
2018-06-12T20:16:17.174Z,5.30
2018-06-12T20:18:51.680Z,5.57
2018-06-12T20:21:24.381Z,6.27
2018-06-12T20:23:55.130Z,6.33
2018-06-12T20:26:23.032Z,7.03
2018-06-12T20:28:50.924Z,6.97
2018-06-12T20:31:25.886Z,7.27
2018-06-12T20:33:59.794Z,5.90
2018-06-12T20:36:27.696Z,6.67
2018-06-12T20:39:04.071Z,5.60
2018-06-12T20:41:32.026Z,5.30
2018-06-12T20:44:06.629Z,4.73
2018-06-12T20:46:40.814Z,4.67
2018-06-12T20:49:12.603Z,4.60
2018-06-12T20:51:43.120Z,3.97
2018-06-12T20:54:11.034Z,4.83
2018-06-12T20:56:43.902Z,4.13
2018-06-12T20:59:24.683Z,4.67
2018-06-12T21:01:56.407Z,4.87
2018-06-12T21:04:27.369Z,3.80
2018-06-12T21:06:56.713Z,4.03
2018-06-12T21:09:24.349Z,4.67
2018-06-12T21:11:52.247Z,4.77
2018-06-12T21:14:20.103Z,4.50
2018-06-12T21:16:47.981Z,4.40
2018-06-12T21:19:17.086Z,4.33
2018-06-12T21:21:50.630Z,5.10
2018-06-12T21:24:29.837Z,5.07
2018-06-12T21:26:57.765Z,4.97
2018-06-12T21:29:27.605Z,4.33
2018-06-12T21:31:57.268Z,5.27
2018-06-12T21:34:28.526Z,5.67
2018-06-12T21:37:04.719Z,5.60
2018-06-12T21:39:37.826Z,5.73
2018-06-12T21:42:13.736Z,6.20
2018-06-12T21:44:52.630Z,6.40
2018-06-12T21:47:20.618Z,5.47
2018-06-12T21:49:48.502Z,6.00
2018-06-12T21:52:16.355Z,5.57
2018-06-12T21:54:49.847Z,5.80
2018-06-12T21:57:19.166Z,6.70
2018-06-12T21:59:55.866Z,6.33
2018-06-12T22:02:30.962Z,6.47
2018-06-12T22:05:08.447Z,5.83
2018-06-12T22:07:50.013Z,5.90
2018-06-12T22:10:28.986Z,6.10
2018-06-12T22:13:04.049Z,6.40
2018-06-12T22:15:33.673Z,5.90
2018-06-12T22:18:01.553Z,6.00
2018-06-12T22:20:29.439Z,6.67
2018-06-12T22:22:57.323Z,6.30
2018-06-12T22:25:32.126Z,5.73
2018-06-12T22:28:00.988Z,6.40
2018-06-12T22:30:28.819Z,6.53
2018-06-12T22:32:56.697Z,6.30
2018-06-12T22:35:24.527Z,6.43
2018-06-12T22:37:52.430Z,5.87
2018-06-12T22:40:20.289Z,5.87
2018-06-12T22:42:48.920Z,5.60
2018-06-12T22:45:16.784Z,6.77
2018-06-12T22:47:45.254Z,5.97
2018-06-12T22:50:12.958Z,4.90
2018-06-12T22:52:40.810Z,5.90
2018-06-12T22:55:08.654Z,7.20
2018-06-12T22:57:36.500Z,6.57
2018-06-12T23:00:20.183Z,7.60
2018-06-12T23:02:48.483Z,8.57
2018-06-12T23:05:16.355Z,11.20
2018-06-12T23:07:45.634Z,8.40
2018-06-12T23:10:14.144Z,11.60
2018-06-12T23:12:41.963Z,10.80
2018-06-12T23:15:09.704Z,11.03
2018-06-12T23:17:37.674Z,11.70
2018-06-12T23:20:11.166Z,12.73
2018-06-12T23:22:38.876Z,13.43
2018-06-12T23:25:06.717Z,12.27
2018-06-12T23:27:34.574Z,12.90
2018-06-12T23:30:02.377Z,15.00
2018-06-12T23:32:30.250Z,16.43
2018-06-12T23:34:58.706Z,15.40
2018-06-12T23:37:26.601Z,17.50
2018-06-12T23:39:54.468Z,18.10
2018-06-12T23:42:22.865Z,16.30
2018-06-12T23:44:57.046Z,12.47
2018-06-12T23:47:24.898Z,14.13
2018-06-12T23:49:52.761Z,13.87
2018-06-12T23:52:20.585Z,10.70
2018-06-12T23:54:48.487Z,10.93
2018-06-12T23:57:17.334Z,9.47
2018-06-12T23:59:45.216Z,9.97
